Private Wetterstation Wechselburg
Wetterdaten: Woche 30.01.23 - 05.02.23 (KW5)
Datum Zeit Temp. +2m Bodentemp. Temp.+5cm Temp. Wind Windchill X Diff Temp. Feuchte +2m Feuchte +5cm Luftdruck Regen Wind Richtung Sonnenschein Taupunkt Windchill Windben
30.01.2023 00:00 -2,3 C 3,3 C -1,3 C -2,4 C -2,6 C 0,0 C 81 % 99 % 1019,5 hPa 0,0 l/m 1,4 km/h (1 Bft) SW 0,00 h -5,1 C -2,6 C 4,2 km/h (1 Bft)
30.01.2023 01:00 -1,8 C 3,1 C -0,8 C -2,2 C -3,2 C 0,0 C 80 % 99 % 1018,6 hPa 0,0 l/m 4,4 km/h (1 Bft) SW 0,00 h -4,7 C -4,7 C 9,3 km/h (2 Bft)
30.01.2023 02:00 -1,3 C 3,1 C -0,3 C -1,7 C -2,6 C 0,0 C 81 % 99 % 1017,2 hPa 0,0 l/m 4,3 km/h (1 Bft) S 0,00 h -4,2 C -3,0 C 8,8 km/h (2 Bft)
30.01.2023 03:00 -0,7 C 3,1 C 0,4 C -1,2 C -2,1 C 0,0 C 81 % 99 % 1015,7 hPa 0,0 l/m 4,5 km/h (1 Bft) SW 0,00 h -3,5 C -3,2 C 8,2 km/h (2 Bft)
30.01.2023 04:00 -0,2 C 3,1 C 1,0 C -0,8 C -2,0 C 0,0 C 81 % 99 % 1014,7 hPa 0,0 l/m 5,3 km/h (1 Bft) S-SO 0,00 h -3,0 C -3,7 C 12,0 km/h (2 Bft)
30.01.2023 05:00 0,2 C 3,2 C 1,3 C -0,4 C -1,6 C 0,0 C 81 % 99 % 1014,0 hPa 0,0 l/m 5,0 km/h (1 Bft) SW 0,00 h -2,7 C -3,1 C 7,5 km/h (2 Bft)
30.01.2023 06:00 0,6 C 3,2 C 1,4 C -0,0 C -1,4 C 0,0 C 81 % 99 % 1012,8 hPa 0,0 l/m 6,2 km/h (2 Bft) S-SO 0,00 h -2,3 C -3,5 C 9,8 km/h (2 Bft)
30.01.2023 07:00 0,9 C 3,2 C 2,0 C 0,3 C -1,3 C 0,0 C 82 % 99 % 1011,9 hPa 0,0 l/m 7,1 km/h (2 Bft) S-SW 0,00 h -1,8 C -3,9 C 9,4 km/h (2 Bft)
30.01.2023 08:00 1,4 C 3,3 C 2,8 C 0,7 C -1,3 C 0,0 C 83 % 99 % 1011,9 hPa 0,0 l/m 9,4 km/h (2 Bft) S 0,00 h -1,2 C -4,6 C 12,8 km/h (3 Bft)
30.01.2023 09:00 1,2 C 3,7 C 2,8 C 0,5 C -2,0 C 0,0 C 86 % 99 % 1012,1 hPa 0,0 l/m 10,3 km/h (2 Bft) S-SW 0,00 h -0,9 C -5,8 C 14,3 km/h (3 Bft)
30.01.2023 10:00 1,9 C 3,4 C 3,5 C 1,5 C -0,1 C 0,0 C 85 % 99 % 1012,0 hPa 0,7 l/m 9,5 km/h (2 Bft) SW 0,00 h -0,3 C -3,3 C 13,5 km/h (3 Bft)
30.01.2023 11:00 2,2 C 3,5 C 4,1 C 1,6 C 0,0 C 0,0 C 84 % 99 % 1011,8 hPa 0,0 l/m 8,8 km/h (2 Bft) SW 0,00 h -0,2 C -2,9 C 10,5 km/h (2 Bft)
30.01.2023 12:00 2,2 C 3,7 C 3,9 C 1,6 C -0,2 C 0,0 C 87 % 99 % 1011,4 hPa 0,0 l/m 8,6 km/h (2 Bft) SW 0,00 h 0,2 C -3,2 C 10,9 km/h (2 Bft)
30.01.2023 13:00 2,9 C 3,6 C 4,9 C 2,5 C 1,2 C 0,0 C 86 % 99 % 1011,2 hPa 0,0 l/m 9,6 km/h (2 Bft) SW 0,00 h 0,8 C -1,8 C 10,6 km/h (2 Bft)
30.01.2023 14:00 3,2 C 3,6 C 5,4 C 2,8 C 1,5 C 0,0 C 84 % 99 % 1011,0 hPa 0,0 l/m 8,4 km/h (2 Bft) S-SW 0,00 h 0,8 C -1,0 C 10,9 km/h (2 Bft)
30.01.2023 15:00 3,5 C 3,7 C 5,5 C 3,0 C 1,4 C 0,0 C 83 % 99 % 1010,7 hPa 0,0 l/m 10,3 km/h (2 Bft) SW 0,00 h 0,9 C -1,7 C 13,2 km/h (3 Bft)
30.01.2023 16:00 3,8 C 3,8 C 5,5 C 3,2 C 1,3 C 0,0 C 81 % 99 % 1010,8 hPa 0,0 l/m 11,5 km/h (2 Bft) SW 0,00 h 0,8 C -2,1 C 16,0 km/h (3 Bft)
30.01.2023 17:00 4,1 C 3,8 C 5,5 C 3,4 C 1,5 C 0,0 C 79 % 99 % 1011,5 hPa 0,0 l/m 11,7 km/h (2 Bft) W-SW 0,00 h 0,8 C -1,9 C 14,1 km/h (3 Bft)
30.01.2023 18:00 4,0 C 4,0 C 5,6 C 3,3 C 1,4 C 0,0 C 80 % 99 % 1011,5 hPa 0,0 l/m 10,8 km/h (2 Bft) SW 0,00 h 0,8 C -1,9 C 14,0 km/h (3 Bft)
30.01.2023 19:00 3,7 C 4,1 C 6,3 C 3,1 C 1,2 C 0,0 C 81 % 99 % 1011,5 hPa 0,0 l/m 10,3 km/h (2 Bft) SW 0,00 h 0,7 C -2,0 C 13,3 km/h (3 Bft)
30.01.2023 20:00 3,6 C 4,2 C 6,2 C 2,9 C 0,8 C 0,0 C 82 % 99 % 1013,6 hPa 0,0 l/m 9,6 km/h (2 Bft) SW 0,00 h 0,7 C -2,2 C 10,7 km/h (2 Bft)
30.01.2023 21:00 3,5 C 4,2 C 6,1 C 2,9 C 1,2 C 0,0 C 82 % 99 % 1016,3 hPa 0,0 l/m 8,3 km/h (2 Bft) SW 0,00 h 0,7 C -1,4 C 10,9 km/h (2 Bft)
30.01.2023 22:00 3,5 C 4,3 C 6,5 C 2,8 C 1,0 C 0,0 C 82 % 99 % 1016,7 hPa 0,0 l/m 9,5 km/h (2 Bft) W-SW 0,00 h 0,7 C -2,0 C 11,4 km/h (2 Bft)
30.01.2023 23:00 3,1 C 4,7 C 6,5 C 2,3 C 0,8 C 0,0 C 84 % 99 % 1017,5 hPa 0,7 l/m 6,2 km/h (2 Bft) SW 0,00 h 0,7 C -1,2 C 9,2 km/h (2 Bft)
31.01.2023 00:00 2,7 C 4,7 C 5,9 C 2,1 C 0,9 C 0,0 C 87 % 99 % 1018,1 hPa 0,0 l/m 5,0 km/h (1 Bft) SW 0,00 h 0,8 C -0,3 C 7,6 km/h (2 Bft)
31.01.2023 01:00 2,5 C 4,9 C 5,9 C 1,9 C 0,8 C 0,0 C 87 % 99 % 1018,2 hPa 0,7 l/m 4,8 km/h (1 Bft) W-SW 0,00 h 0,6 C -0,4 C 6,9 km/h (2 Bft)
31.01.2023 02:00 2,6 C 4,8 C 5,9 C 1,8 C 0,1 C 0,0 C 88 % 99 % 1018,2 hPa 0,7 l/m 6,7 km/h (2 Bft) W-SW 0,00 h 0,7 C -2,0 C 8,8 km/h (2 Bft)
31.01.2023 03:00 2,2 C 5,0 C 5,7 C 1,6 C 0,2 C 0,0 C 88 % 99 % 1019,1 hPa 0,0 l/m 5,1 km/h (1 Bft) SW 0,00 h 0,4 C -1,0 C 6,1 km/h (2 Bft)
31.01.2023 04:00 2,6 C 4,8 C 6,2 C 1,8 C -0,0 C 0,0 C 88 % 99 % 1019,8 hPa 0,0 l/m 7,1 km/h (2 Bft) SW 0,00 h 0,7 C -2,5 C 9,8 km/h (2 Bft)
31.01.2023 05:00 2,8 C 4,7 C 7,1 C 2,2 C 0,7 C 0,0 C 85 % 99 % 1019,8 hPa 0,0 l/m 7,7 km/h (2 Bft) SW 0,00 h 0,6 C -1,8 C 10,4 km/h (2 Bft)
31.01.2023 06:00 2,6 C 4,7 C 7,8 C 1,9 C 0,2 C 0,0 C 85 % 99 % 1020,1 hPa 0,0 l/m 7,2 km/h (2 Bft) SW 0,00 h 0,3 C -2,2 C 8,1 km/h (2 Bft)
31.01.2023 07:00 2,7 C 4,7 C 7,8 C 2,0 C 0,7 C 0,0 C 84 % 99 % 1020,3 hPa 0,0 l/m 7,1 km/h (2 Bft) SW 0,00 h 0,3 C -1,6 C 9,9 km/h (2 Bft)
31.01.2023 08:00 3,1 C 4,6 C 9,4 C 2,6 C 1,2 C 0,0 C 82 % 99 % 1020,1 hPa 0,0 l/m 7,9 km/h (2 Bft) SW 0,00 h 0,2 C -1,3 C 9,9 km/h (2 Bft)
31.01.2023 09:00 3,2 C 4,6 C 10,3 C 2,8 C 1,5 C 0,0 C 79 % 99 % 1020,5 hPa 0,0 l/m 7,9 km/h (2 Bft) SW 0,00 h -0,0 C -0,9 C 9,6 km/h (2 Bft)
31.01.2023 10:00 3,5 C 4,6 C 11,3 C 3,4 C 3,0 C 0,0 C 79 % 99 % 1020,4 hPa 0,0 l/m 6,3 km/h (2 Bft) W-SW 0,00 h 0,2 C 1,3 C 9,4 km/h (2 Bft)
31.01.2023 11:00 4,0 C 4,6 C 13,7 C 3,9 C 3,2 C 0,0 C 77 % 99 % 1020,4 hPa 0,0 l/m 8,5 km/h (2 Bft) SW 0,00 h 0,3 C 0,9 C 11,7 km/h (2 Bft)
31.01.2023 12:00 4,5 C 4,6 C 16,8 C 4,3 C 3,3 C 0,0 C 75 % 99 % 1019,4 hPa 0,0 l/m 10,0 km/h (2 Bft) S 0,00 h 0,4 C 0,6 C 13,6 km/h (3 Bft)
31.01.2023 13:00 4,2 C 4,7 C 16,6 C 3,7 C 2,3 C 0,0 C 77 % 99 % 1018,1 hPa 0,0 l/m 8,9 km/h (2 Bft) S-SO 0,00 h 0,6 C -0,3 C 14,0 km/h (3 Bft)
31.01.2023 14:00 3,5 C 5,0 C 16,6 C 2,9 C 1,3 C 0,0 C 83 % 99 % 1017,6 hPa 0,0 l/m 6,7 km/h (2 Bft) SO 0,00 h 0,9 C -0,5 C 8,1 km/h (2 Bft)
31.01.2023 15:00 3,6 C 5,0 C 18,2 C 2,9 C 0,7 C 0,0 C 82 % 99 % 1016,6 hPa 0,0 l/m 9,4 km/h (2 Bft) SW 0,00 h 0,9 C -2,3 C 15,7 km/h (3 Bft)
31.01.2023 16:00 3,4 C 5,0 C 19,0 C 2,7 C 0,6 C 0,0 C 83 % 99 % 1016,6 hPa 0,0 l/m 9,5 km/h (2 Bft) SW 0,00 h 0,8 C -2,5 C 13,9 km/h (3 Bft)
31.01.2023 17:00 3,1 C 5,2 C 17,7 C 2,2 C 0,3 C 0,0 C 86 % 99 % 1016,5 hPa 0,0 l/m 7,8 km/h (2 Bft) S 0,00 h 0,9 C -2,4 C 9,5 km/h (2 Bft)
31.01.2023 18:00 3,7 C 5,1 C 19,8 C 3,1 C 1,5 C 0,0 C 85 % 99 % 1016,3 hPa 0,0 l/m 9,2 km/h (2 Bft) SW 0,00 h 1,4 C -1,3 C 12,7 km/h (3 Bft)
31.01.2023 19:00 4,1 C 5,0 C 22,8 C 3,6 C 1,8 C 0,0 C 83 % 99 % 1016,3 hPa 0,0 l/m 10,4 km/h (2 Bft) SW 0,00 h 1,4 C -1,3 C 13,8 km/h (3 Bft)
31.01.2023 20:00 4,3 C 5,1 C 24,4 C 3,8 C 2,7 C 0,0 C 82 % 99 % 1016,1 hPa 0,0 l/m 7,3 km/h (2 Bft) SW 0,00 h 1,5 C 0,6 C 9,5 km/h (2 Bft)
31.01.2023 21:00 4,3 C 5,2 C 23,6 C 3,7 C 2,0 C 0,0 C 83 % 99 % 1015,8 hPa 1,4 l/m 8,3 km/h (2 Bft) SW 0,00 h 1,7 C -0,5 C 9,9 km/h (2 Bft)
31.01.2023 22:00 4,4 C 5,4 C 22,9 C 3,7 C 1,5 C 0,0 C 86 % 99 % 1016,1 hPa 0,7 l/m 8,9 km/h (2 Bft) SW 0,00 h 2,2 C -1,3 C 10,2 km/h (2 Bft)
31.01.2023 23:00 4,7 C 5,3 C 20,4 C 3,9 C 1,6 C 0,0 C 83 % 99 % 1016,5 hPa 0,0 l/m 10,6 km/h (2 Bft) SW 0,00 h 2,1 C -1,6 C 12,7 km/h (3 Bft)
01.02.2023 00:00 4,8 C 5,3 C 23,5 C 4,1 C 2,4 C 0,0 C 81 % 99 % 1015,9 hPa 0,0 l/m 10,4 km/h (2 Bft) S-SW 0,00 h 1,8 C -0,6 C 14,0 km/h (3 Bft)
01.02.2023 01:00 5,0 C 5,3 C 31,8 C 4,4 C 2,8 C 0,0 C 79 % 99 % 1016,4 hPa 0,0 l/m 10,4 km/h (2 Bft) SW 0,00 h 1,7 C -0,0 C 13,2 km/h (3 Bft)
01.02.2023 02:00 4,8 C 5,3 C 37,2 C 4,4 C 2,9 C 0,0 C 78 % 99 % 1016,4 hPa 0,0 l/m 9,4 km/h (2 Bft) SW 0,00 h 1,2 C 0,4 C 10,8 km/h (2 Bft)
01.02.2023 03:00 4,6 C 5,3 C 65,4 C 4,1 C 2,5 C 0,0 C 77 % 99 % 1015,8 hPa 0,0 l/m 8,9 km/h (2 Bft) SW 0,00 h 0,9 C 0,0 C 10,9 km/h (2 Bft)
01.02.2023 04:00 4,4 C 5,3 C 73,0 C 3,8 C 2,5 C 0,0 C 77 % 99 % 1015,0 hPa 0,0 l/m 8,5 km/h (2 Bft) S-SW 0,00 h 0,7 C 0,0 C 9,7 km/h (2 Bft)
01.02.2023 05:00 4,4 C 5,3 C 73,0 C 4,0 C 3,1 C 0,0 C 76 % 99 % 1014,9 hPa 0,0 l/m 6,7 km/h (2 Bft) SW 0,00 h 0,6 C 1,4 C 8,6 km/h (2 Bft)
01.02.2023 06:00 4,3 C 5,3 C 26,3 C 3,8 C 2,9 C 0,0 C 76 % 99 % 1013,9 hPa 0,0 l/m 5,8 km/h (2 Bft) S 0,00 h 0,5 C 1,6 C 10,2 km/h (2 Bft)
01.02.2023 07:00 4,1 C 5,3 C 21,8 C 3,7 C 2,4 C 0,0 C 79 % 99 % 1013,8 hPa 0,0 l/m 7,8 km/h (2 Bft) S-SW 0,00 h 0,7 C 0,1 C 8,6 km/h (2 Bft)
01.02.2023 08:00 4,0 C 5,3 C 7,6 C 3,7 C 2,8 C 0,0 C 79 % 99 % 1013,6 hPa 0,0 l/m 6,2 km/h (2 Bft) S 0,00 h 0,7 C 1,2 C 9,8 km/h (2 Bft)
01.02.2023 09:00 4,5 C 5,3 C 14,5 C 4,1 C 2,9 C 0,0 C 76 % 99 % 1013,7 hPa 0,0 l/m 9,2 km/h (2 Bft) SW 0,00 h 0,7 C 0,4 C 13,6 km/h (3 Bft)
01.02.2023 10:00 4,1 C 5,7 C 56,7 C 3,1 C 0,5 C 0,0 C 81 % 99 % 1013,4 hPa 0,0 l/m 12,4 km/h (3 Bft) SW 0,00 h 1,0 C -3,3 C 14,2 km/h (3 Bft)
01.02.2023 11:00 4,7 C 5,4 C 49,4 C 4,1 C 2,1 C 0,0 C 81 % 99 % 1013,7 hPa 0,7 l/m 13,0 km/h (3 Bft) SW 0,00 h 1,7 C -1,5 C 15,7 km/h (3 Bft)
01.02.2023 12:00 5,5 C 5,4 C 19,9 C 5,1 C 4,0 C 0,0 C 76 % 99 % 1014,1 hPa 0,0 l/m 13,4 km/h (3 Bft) W-SW 0,00 h 1,7 C 0,8 C 16,8 km/h (3 Bft)
01.02.2023 13:00 5,9 C 5,4 C 23,5 C 5,8 C 4,7 C 0,0 C 74 % 99 % 1013,7 hPa 0,0 l/m 11,3 km/h (2 Bft) SW 0,00 h 1,7 C 2,0 C 14,9 km/h (3 Bft)
01.02.2023 14:00 6,1 C 5,5 C 19,9 C 5,8 C 4,5 C 0,0 C 71 % 99 % 1013,3 hPa 0,0 l/m 11,3 km/h (2 Bft) SW 0,00 h 1,4 C 1,8 C 15,8 km/h (3 Bft)
01.02.2023 15:00 5,9 C 5,5 C 22,3 C 5,5 C 3,9 C 0,0 C 71 % 99 % 1012,6 hPa 0,0 l/m 12,0 km/h (2 Bft) SW 0,00 h 1,1 C 0,9 C 15,0 km/h (3 Bft)
01.02.2023 16:00 5,8 C 5,5 C 24,2 C 5,2 C 3,4 C 0,0 C 71 % 99 % 1012,2 hPa 0,0 l/m 13,1 km/h (3 Bft) W-SW 0,00 h 0,9 C 0,2 C 15,5 km/h (3 Bft)
01.02.2023 17:00 5,4 C 5,7 C 24,2 C 4,7 C 2,5 C 0,0 C 70 % 99 % 1011,9 hPa 0,0 l/m 14,0 km/h (3 Bft) SW 0,00 h 0,5 C -1,1 C 18,1 km/h (3 Bft)
01.02.2023 18:00 1,8 C 5,9 C 24,2 C 0,8 C -1,6 C 0,0 C 83 % 99 % 1013,0 hPa 0,7 l/m 7,3 km/h (2 Bft) SW 0,00 h -0,7 C -4,3 C 11,1 km/h (2 Bft)
01.02.2023 19:00 1,9 C 5,8 C 24,2 C 0,9 C -1,3 C 0,0 C 86 % 99 % 1013,1 hPa 0,7 l/m 6,8 km/h (2 Bft) SW 0,00 h -0,1 C -3,8 C 9,2 km/h (2 Bft)
01.02.2023 20:00 2,3 C 5,7 C 24,2 C 1,3 C -1,1 C 0,0 C 87 % 99 % 1013,7 hPa 1,4 l/m 8,4 km/h (2 Bft) W-SW 0,00 h 0,3 C -4,2 C 9,9 km/h (2 Bft)
01.02.2023 21:00 2,4 C 5,6 C 24,2 C 1,8 C 0,4 C 0,0 C 87 % 99 % 1014,2 hPa 0,0 l/m 6,9 km/h (2 Bft) SW 0,00 h 0,5 C -1,9 C 8,2 km/h (2 Bft)
01.02.2023 22:00 2,7 C 5,6 C 24,2 C 2,2 C 1,1 C 0,0 C 87 % 99 % 1014,3 hPa 0,0 l/m 6,3 km/h (2 Bft) SW 0,00 h 0,8 C -0,8 C 6,3 km/h (2 Bft)
01.02.2023 23:00 2,7 C 5,7 C 24,2 C 2,1 C 0,9 C 0,0 C 86 % 99 % 1014,3 hPa 0,0 l/m 5,4 km/h (1 Bft) SW 0,00 h 0,6 C -0,4 C 6,9 km/h (2 Bft)
02.02.2023 00:00 2,4 C 5,5 C 24,2 C 1,5 C -0,5 C 0,0 C 87 % 99 % 1014,4 hPa 0,0 l/m 6,7 km/h (2 Bft) SW 0,00 h 0,5 C -2,6 C 8,8 km/h (2 Bft)
02.02.2023 01:00 3,1 C 5,4 C 24,2 C 2,4 C 0,6 C 0,0 C 85 % 99 % 1014,4 hPa 0,0 l/m 7,9 km/h (2 Bft) SW 0,00 h 0,8 C -2,0 C 11,2 km/h (2 Bft)
02.02.2023 02:00 3,2 C 5,4 C 24,2 C 2,5 C 0,4 C 0,0 C 82 % 99 % 1014,2 hPa 0,0 l/m 9,0 km/h (2 Bft) SW 0,00 h 0,5 C -2,5 C 11,5 km/h (2 Bft)
02.02.2023 03:00 3,4 C 5,2 C 24,2 C 2,6 C 0,4 C 0,0 C 80 % 99 % 1014,5 hPa 0,0 l/m 10,5 km/h (2 Bft) SW 0,00 h 0,3 C -2,9 C 12,9 km/h (3 Bft)
02.02.2023 04:00 3,4 C 5,2 C 24,2 C 2,8 C 1,2 C 0,0 C 79 % 99 % 1014,9 hPa 0,0 l/m 9,0 km/h (2 Bft) S 0,00 h 0,1 C -1,6 C 9,6 km/h (2 Bft)
02.02.2023 05:00 3,5 C 5,2 C 24,2 C 3,0 C 1,2 C 0,0 C 77 % 99 % 1015,2 hPa 0,0 l/m 9,6 km/h (2 Bft) SW 0,00 h -0,1 C -1,7 C 14,1 km/h (3 Bft)
02.02.2023 06:00 3,4 C 5,2 C 24,2 C 2,8 C 0,8 C 0,0 C 78 % 99 % 1015,1 hPa 0,0 l/m 9,6 km/h (2 Bft) SW 0,00 h -0,1 C -2,2 C 12,9 km/h (3 Bft)
02.02.2023 07:00 3,5 C 5,1 C 24,2 C 2,9 C 1,1 C 0,0 C 78 % 99 % 1016,0 hPa 0,0 l/m 9,3 km/h (2 Bft) W-SW 0,00 h 0,0 C -1,8 C 13,1 km/h (3 Bft)
02.02.2023 08:00 3,4 C 5,1 C 24,2 C 2,9 C 1,8 C 0,0 C 79 % 99 % 1016,2 hPa 0,0 l/m 7,2 km/h (2 Bft) W-SW 0,00 h 0,0 C -0,4 C 7,5 km/h (2 Bft)
02.02.2023 09:00 3,7 C 5,1 C 24,2 C 3,4 C 2,5 C 0,0 C 79 % 99 % 1017,0 hPa 0,0 l/m 7,6 km/h (2 Bft) SW 0,00 h 0,4 C 0,3 C 10,2 km/h (2 Bft)
02.02.2023 10:00 4,2 C 5,2 C 24,2 C 3,8 C 2,9 C 0,0 C 79 % 99 % 1017,7 hPa 0,0 l/m 8,6 km/h (2 Bft) SW 0,00 h 0,8 C 0,4 C 12,3 km/h (3 Bft)
02.02.2023 11:00 4,7 C 5,2 C 24,2 C 4,6 C 4,1 C 0,1 C 78 % 99 % 1018,0 hPa 0,0 l/m 7,5 km/h (2 Bft) W-SW 0,00 h 1,2 C 2,2 C 9,6 km/h (2 Bft)
02.02.2023 12:00 5,0 C 5,2 C 24,2 C 4,9 C 4,6 C 0,0 C 77 % 99 % 1018,4 hPa 0,0 l/m 6,7 km/h (2 Bft) SW 0,00 h 1,4 C 3,0 C 9,6 km/h (2 Bft)
02.02.2023 13:00 4,7 C 5,3 C 24,2 C 4,5 C 3,6 C 0,0 C 79 % 99 % 1018,8 hPa 0,0 l/m 8,6 km/h (2 Bft) W-SW 0,00 h 1,3 C 1,3 C 9,7 km/h (2 Bft)
02.02.2023 14:00 4,8 C 5,4 C 24,2 C 5,2 C 4,6 C 0,5 C 81 % 99 % 1019,1 hPa 0,0 l/m 7,8 km/h (2 Bft) W-SW 0,00 h 1,8 C 2,7 C 10,9 km/h (2 Bft)
02.02.2023 15:00 4,4 C 5,5 C 24,2 C 4,4 C 3,9 C 0,2 C 82 % 99 % 1020,3 hPa 0,0 l/m 5,9 km/h (2 Bft) SW 0,00 h 1,7 C 2,6 C 6,2 km/h (2 Bft)
02.02.2023 16:00 4,0 C 5,5 C 24,2 C 3,9 C 3,7 C 0,0 C 83 % 99 % 1021,4 hPa 0,0 l/m 4,4 km/h (1 Bft) SW 0,00 h 1,5 C 3,3 C 6,9 km/h (2 Bft)
02.02.2023 17:00 3,9 C 5,6 C 24,2 C 3,7 C 3,4 C 0,0 C 84 % 99 % 1022,5 hPa 0,0 l/m 4,0 km/h (1 Bft) SW 0,00 h 1,4 C 3,1 C 5,6 km/h (1 Bft)
02.02.2023 18:00 3,2 C 5,9 C 24,2 C 2,9 C 2,3 C 0,0 C 85 % 99 % 1023,6 hPa 0,0 l/m 2,4 km/h (1 Bft) SW 0,00 h 0,9 C 2,2 C 3,1 km/h (1 Bft)
02.02.2023 19:00 2,8 C 5,9 C 24,2 C 2,5 C 1,9 C 0,0 C 87 % 99 % 1024,0 hPa 0,0 l/m 1,6 km/h (1 Bft) SW 0,00 h 0,8 C 1,9 C 2,7 km/h (1 Bft)
02.02.2023 20:00 2,2 C 6,0 C 24,2 C 1,9 C 1,3 C 0,0 C 86 % 99 % 1024,5 hPa 0,0 l/m 0,3 km/h (0 Bft) S-SW 0,00 h 0,2 C 1,3 C 0,2 km/h (0 Bft)
02.02.2023 21:00 1,8 C 6,0 C 24,2 C 1,6 C 1,1 C 0,0 C 87 % 99 % 1024,5 hPa 0,0 l/m 0,0 km/h (0 Bft) N 0,00 h -0,1 C 1,1 C 0,0 km/h (0 Bft)
02.02.2023 22:00 1,9 C 6,0 C 24,2 C 1,7 C 1,3 C 0,0 C 88 % 99 % 1024,6 hPa 0,0 l/m 0,2 km/h (0 Bft) N 0,00 h 0,1 C 1,3 C 0,5 km/h (0 Bft)
02.02.2023 23:00 2,2 C 5,9 C 24,2 C 2,1 C 1,8 C 0,0 C 88 % 99 % 1024,4 hPa 0,0 l/m 1,8 km/h (1 Bft) S-SO 0,00 h 0,5 C 1,8 C 3,1 km/h (1 Bft)
03.02.2023 00:00 2,5 C 5,9 C 24,2 C 2,3 C 2,0 C 0,0 C 88 % 99 % 1024,0 hPa 0,7 l/m 2,0 km/h (1 Bft) S 0,00 h 0,7 C 2,0 C 5,3 km/h (1 Bft)
03.02.2023 01:00 2,0 C 5,9 C 24,2 C 1,8 C 1,5 C 0,0 C 88 % 99 % 1023,7 hPa 0,7 l/m 1,9 km/h (1 Bft) S-SO 0,00 h 0,2 C 1,5 C 2,6 km/h (1 Bft)
03.02.2023 02:00 1,9 C 5,9 C 24,2 C 1,8 C 1,7 C 0,0 C 89 % 99 % 1022,0 hPa 1,4 l/m 1,4 km/h (1 Bft) SW 0,00 h 0,2 C 1,7 C 2,7 km/h (1 Bft)
03.02.2023 03:00 2,8 C 6,0 C 24,2 C 2,7 C 2,4 C 0,0 C 89 % 99 % 1021,1 hPa 1,4 l/m 3,7 km/h (1 Bft) SW 0,00 h 1,2 C 1,7 C 4,9 km/h (1 Bft)
03.02.2023 04:00 3,5 C 6,0 C 24,2 C 3,3 C 2,9 C 0,0 C 89 % 99 % 1020,8 hPa 0,0 l/m 5,1 km/h (1 Bft) S 0,00 h 1,9 C 1,8 C 8,7 km/h (2 Bft)
03.02.2023 05:00 4,1 C 6,0 C 24,2 C 4,2 C 3,8 C 0,2 C 89 % 99 % 1020,0 hPa 0,7 l/m 4,6 km/h (1 Bft) SW 0,00 h 2,5 C 2,9 C 7,2 km/h (2 Bft)
03.02.2023 06:00 4,9 C 6,1 C 24,2 C 4,5 C 3,5 C 0,0 C 89 % 99 % 1019,9 hPa 0,0 l/m 7,7 km/h (2 Bft) SW 0,00 h 3,2 C 1,5 C 9,7 km/h (2 Bft)
03.02.2023 07:00 5,5 C 6,0 C 24,2 C 5,0 C 4,0 C 0,0 C 89 % 99 % 1019,0 hPa 0,0 l/m 7,5 km/h (2 Bft) W-SW 0,00 h 3,8 C 2,1 C 9,9 km/h (2 Bft)
03.02.2023 08:00 6,0 C 5,9 C 24,2 C 5,6 C 4,5 C 0,0 C 88 % 99 % 1018,0 hPa 0,0 l/m 7,8 km/h (2 Bft) SW 0,00 h 4,2 C 2,6 C 12,5 km/h (3 Bft)
03.02.2023 09:00 6,3 C 5,9 C 24,2 C 5,9 C 4,8 C 0,0 C 87 % 99 % 1017,4 hPa 0,0 l/m 9,2 km/h (2 Bft) SW 0,00 h 4,3 C 2,5 C 12,1 km/h (2 Bft)
03.02.2023 10:00 6,9 C 5,9 C 24,2 C 6,7 C 5,7 C 0,0 C 84 % 99 % 1016,8 hPa 0,0 l/m 10,0 km/h (2 Bft) W-SW 0,00 h 4,4 C 3,5 C 14,0 km/h (3 Bft)
03.02.2023 11:00 7,6 C 6,0 C 24,2 C 7,2 C 5,9 C 0,0 C 82 % 99 % 1016,1 hPa 0,0 l/m 13,3 km/h (3 Bft) S 0,00 h 4,6 C 3,1 C 17,6 km/h (3 Bft)
03.02.2023 12:00 7,5 C 6,2 C 24,2 C 7,0 C 5,1 C 0,0 C 84 % 99 % 1015,8 hPa 0,0 l/m 13,7 km/h (3 Bft) SW 0,00 h 5,0 C 2,0 C 16,1 km/h (3 Bft)
03.02.2023 13:00 7,5 C 6,7 C 24,2 C 6,8 C 4,6 C 0,0 C 87 % 99 % 1015,3 hPa 1,4 l/m 14,5 km/h (3 Bft) SW 0,00 h 5,5 C 1,3 C 19,3 km/h (3 Bft)
03.02.2023 14:00 7,3 C 6,8 C 24,2 C 6,9 C 5,6 C 0,0 C 88 % 99 % 1015,1 hPa 0,7 l/m 10,6 km/h (2 Bft) W-SW 0,00 h 5,5 C 3,3 C 15,2 km/h (3 Bft)
03.02.2023 15:00 7,6 C 6,5 C 24,2 C 7,7 C 7,5 C 0,1 C 84 % 99 % 1015,6 hPa 0,0 l/m 6,7 km/h (2 Bft) N-NW 0,00 h 5,1 C 6,4 C 9,7 km/h (2 Bft)
03.02.2023 16:00 7,4 C 6,6 C 24,2 C 7,6 C 7,6 C 0,2 C 79 % 99 % 1016,0 hPa 0,0 l/m 4,0 km/h (1 Bft) W-SW 0,00 h 4,0 C 7,4 C 7,6 km/h (2 Bft)
03.02.2023 17:00 7,2 C 6,6 C 24,2 C 6,9 C 6,5 C 0,0 C 76 % 99 % 1016,6 hPa 0,0 l/m 5,8 km/h (2 Bft) W-SW 0,00 h 3,3 C 5,5 C 7,2 km/h (2 Bft)
03.02.2023 18:00 7,1 C 6,6 C 24,2 C 6,8 C 6,3 C 0,0 C 73 % 99 % 1017,3 hPa 0,0 l/m 5,9 km/h (2 Bft) W-SW 0,00 h 2,6 C 5,2 C 9,3 km/h (2 Bft)
03.02.2023 19:00 6,8 C 6,5 C 24,2 C 6,5 C 5,9 C 0,0 C 69 % 99 % 1018,8 hPa 0,0 l/m 6,0 km/h (2 Bft) S 0,00 h 1,5 C 4,8 C 7,3 km/h (2 Bft)
03.02.2023 20:00 6,6 C 6,6 C 24,2 C 6,2 C 5,2 C 0,0 C 68 % 99 % 1019,9 hPa 0,0 l/m 8,2 km/h (2 Bft) SW 0,00 h 1,2 C 3,3 C 9,3 km/h (2 Bft)
03.02.2023 21:00 5,9 C 6,6 C 24,2 C 5,3 C 3,8 C 0,0 C 74 % 99 % 1020,0 hPa 0,0 l/m 8,0 km/h (2 Bft) W-SW 0,00 h 1,6 C 1,7 C 11,5 km/h (2 Bft)
03.02.2023 22:00 5,7 C 6,6 C 24,2 C 5,1 C 3,9 C 0,0 C 76 % 99 % 1020,5 hPa 0,0 l/m 7,3 km/h (2 Bft) SW 0,00 h 1,7 C 2,0 C 9,5 km/h (2 Bft)
03.02.2023 23:00 5,7 C 6,6 C 24,2 C 5,1 C 3,6 C 0,0 C 76 % 99 % 1021,0 hPa 0,0 l/m 7,5 km/h (2 Bft) W-SW 0,00 h 1,9 C 1,7 C 10,2 km/h (2 Bft)
04.02.2023 00:00 5,0 C 6,8 C 24,2 C 4,3 C 2,8 C 0,0 C 83 % 99 % 1021,6 hPa 0,0 l/m 7,2 km/h (2 Bft) SO 0,00 h 2,4 C 0,8 C 12,1 km/h (2 Bft)
04.02.2023 01:00 4,3 C 6,9 C 24,2 C 3,9 C 2,9 C 0,0 C 86 % 99 % 1022,4 hPa 1,4 l/m 5,1 km/h (1 Bft) NW 0,00 h 2,2 C 2,0 C 6,0 km/h (2 Bft)
04.02.2023 02:00 2,8 C 6,9 C 24,2 C 2,6 C 2,0 C 0,0 C 87 % 99 % 1024,3 hPa 0,0 l/m 2,7 km/h (1 Bft) W 0,00 h 0,9 C 2,0 C 5,1 km/h (1 Bft)
04.02.2023 03:00 2,2 C 6,7 C 24,2 C 1,9 C 1,4 C 0,0 C 87 % 99 % 1025,5 hPa 0,0 l/m 2,7 km/h (1 Bft) W-SW 0,00 h 0,3 C 1,4 C 4,2 km/h (1 Bft)
04.02.2023 04:00 1,9 C 6,7 C 24,2 C 1,8 C 1,7 C 0,0 C 87 % 99 % 1027,1 hPa 0,0 l/m 2,2 km/h (1 Bft) S 0,00 h -0,0 C 1,7 C 2,7 km/h (1 Bft)
04.02.2023 05:00 1,5 C 6,6 C 24,2 C 1,3 C 1,0 C 0,0 C 86 % 99 % 1029,0 hPa 0,0 l/m 1,9 km/h (1 Bft) NW 0,00 h -0,5 C 1,0 C 2,8 km/h (1 Bft)
04.02.2023 06:00 1,2 C 6,4 C 24,2 C 1,2 C 1,1 C 0,0 C 86 % 99 % 1030,3 hPa 0,0 l/m 1,0 km/h (0 Bft) NW 0,00 h -0,8 C 1,1 C 1,7 km/h (1 Bft)
04.02.2023 07:00 1,0 C 6,3 C 24,2 C 0,9 C 0,7 C 0,0 C 85 % 99 % 1031,5 hPa 0,0 l/m 0,7 km/h (0 Bft) SO 0,00 h -1,2 C 0,7 C 1,8 km/h (1 Bft)
04.02.2023 08:00 0,7 C 6,4 C 24,2 C 0,6 C 0,3 C 0,0 C 85 % 99 % 1032,2 hPa 0,0 l/m 0,3 km/h (0 Bft) N 0,00 h -1,5 C 0,3 C 0,0 km/h (0 Bft)
04.02.2023 09:00 0,7 C 6,3 C 24,2 C 0,9 C 0,8 C 0,2 C 85 % 99 % 1033,0 hPa 0,0 l/m 0,5 km/h (0 Bft) N 0,00 h -1,5 C 0,8 C 1,1 km/h (0 Bft)
04.02.2023 10:00 1,5 C 6,1 C 24,2 C 3,6 C 3,6 C 2,0 C 86 % 99 % 1033,8 hPa 0,0 l/m 0,6 km/h (0 Bft) S 0,00 h -0,6 C 3,6 C 0,2 km/h (0 Bft)
04.02.2023 11:00 2,1 C 6,0 C 24,2 C 4,3 C 4,3 C 2,2 C 83 % 99 % 1034,8 hPa 0,0 l/m 0,3 km/h (0 Bft) N 0,08 h -0,4 C 4,3 C 0,5 km/h (0 Bft)
04.02.2023 12:00 2,9 C 5,9 C 24,2 C 5,3 C 5,3 C 2,4 C 78 % 99 % 1035,7 hPa 0,0 l/m 0,6 km/h (0 Bft) SW 0,08 h -0,5 C 5,3 C 1,0 km/h (0 Bft)
04.02.2023 13:00 3,4 C 5,9 C 24,2 C 5,9 C 5,9 C 2,5 C 74 % 99 % 1036,1 hPa 0,0 l/m 1,3 km/h (1 Bft) S-SW 0,17 h -0,8 C 5,9 C 2,6 km/h (1 Bft)
04.02.2023 14:00 4,6 C 5,9 C 24,2 C 9,5 C 9,5 C 4,8 C 71 % 99 % 1036,3 hPa 0,0 l/m 1,0 km/h (0 Bft) N-NO 0,83 h -0,1 C 9,5 C 3,6 km/h (1 Bft)
04.02.2023 15:00 4,1 C 5,8 C 24,2 C 6,3 C 6,3 C 2,3 C 68 % 99 % 1036,1 hPa 0,0 l/m 1,1 km/h (1 Bft) SW 0,33 h -1,2 C 6,3 C 1,7 km/h (1 Bft)
04.02.2023 16:00 2,7 C 5,8 C 24,2 C 2,6 C 2,2 C 0,0 C 72 % 99 % 1036,8 hPa 0,0 l/m 0,3 km/h (0 Bft) SO 0,00 h -1,7 C 2,2 C 0,8 km/h (0 Bft)
04.02.2023 17:00 1,7 C 5,8 C 24,2 C 1,3 C 0,4 C 0,0 C 75 % 99 % 1037,3 hPa 0,0 l/m 0,1 km/h (0 Bft) N 0,00 h -2,2 C 0,4 C 0,4 km/h (0 Bft)
04.02.2023 18:00 0,4 C 5,9 C 24,1 C -0,2 C -1,3 C 0,0 C 79 % 99 % 1037,5 hPa 0,0 l/m 0,0 km/h (0 Bft) N 0,00 h -2,8 C -1,3 C 0,0 km/h (0 Bft)
04.02.2023 19:00 -0,3 C 5,9 C 20,8 C -0,9 C -2,1 C 0,0 C 82 % 99 % 1037,7 hPa 0,0 l/m 0,0 km/h (0 Bft) N 0,00 h -3,1 C -2,1 C 0,0 km/h (0 Bft)
04.02.2023 20:00 -1,1 C 6,0 C 12,7 C -1,7 C -2,9 C 0,0 C 83 % 91 % 1038,4 hPa 0,0 l/m 0,0 km/h (0 Bft) N 0,00 h -3,6 C -2,9 C 0,0 km/h (0 Bft)
04.02.2023 21:00 -1,7 C 6,1 C 13,2 C -2,0 C -2,8 C 0,0 C 84 % 99 % 1038,8 hPa 0,0 l/m 0,0 km/h (0 Bft) N 0,00 h -4,0 C -2,8 C 0,0 km/h (0 Bft)
04.02.2023 22:00 -1,4 C 6,0 C 18,7 C -1,7 C -2,3 C 0,0 C 86 % 99 % 1039,2 hPa 0,0 l/m 0,0 km/h (0 Bft) N 0,00 h -3,5 C -2,3 C 0,0 km/h (0 Bft)
04.02.2023 23:00 -1,2 C 5,8 C 20,1 C -1,4 C -1,8 C 0,0 C 86 % 99 % 1039,2 hPa 0,0 l/m 0,0 km/h (0 Bft) N 0,00 h -3,3 C -1,8 C 0,0 km/h (0 Bft)
05.02.2023 00:00 -1,2 C 5,7 C 20,9 C -1,4 C -1,9 C 0,0 C 86 % 99 % 1039,3 hPa 0,0 l/m 0,0 km/h (0 Bft) N 0,00 h -3,3 C -1,9 C 0,0 km/h (0 Bft)
05.02.2023 01:00 -1,7 C 5,6 C 14,4 C -2,0 C -2,7 C 0,0 C 84 % 99 % 1039,4 hPa 0,0 l/m 0,0 km/h (0 Bft) N 0,00 h -4,0 C -2,7 C 0,0 km/h (0 Bft)
05.02.2023 02:00 -2,5 C 5,6 C 8,3 C -3,0 C -3,9 C 0,0 C 84 % 99 % 1039,6 hPa 0,0 l/m 0,0 km/h (0 Bft) N 0,00 h -4,8 C -3,9 C 0,0 km/h (0 Bft)
05.02.2023 03:00 -3,1 C 5,6 C 9,2 C -3,6 C -4,8 C 0,0 C 84 % 99 % 1039,6 hPa 0,0 l/m 0,0 km/h (0 Bft) N 0,00 h -5,4 C -4,8 C 0,0 km/h (0 Bft)
05.02.2023 04:00 -3,8 C 5,6 C 73,0 C -4,4 C -5,4 C 0,0 C 85 % 99 % 1038,9 hPa 0,0 l/m 0,0 km/h (0 Bft) N 0,00 h -6,0 C -5,4 C 0,0 km/h (0 Bft)
05.02.2023 05:00 -4,4 C 5,5 C 73,0 C -4,9 C -5,9 C 0,0 C 85 % 99 % 1037,8 hPa 0,0 l/m 0,0 km/h (0 Bft) N 0,00 h -6,5 C -5,9 C 0,0 km/h (0 Bft)
05.02.2023 06:00 -4,5 C 5,5 C 73,0 C -4,7 C -5,3 C 0,0 C 87 % 99 % 1037,6 hPa 0,0 l/m 0,0 km/h (0 Bft) N 0,00 h -6,4 C -5,3 C 0,0 km/h (0 Bft)
05.02.2023 07:00 -4,3 C 5,4 C 67,0 C -4,6 C -5,2 C 0,0 C 87 % 99 % 1037,9 hPa 0,0 l/m 0,0 km/h (0 Bft) N 0,00 h -6,1 C -5,2 C 0,0 km/h (0 Bft)
05.02.2023 08:00 -3,8 C 5,3 C 2,6 C -3,8 C -4,0 C 0,0 C 88 % 99 % 1037,2 hPa 0,0 l/m 0,0 km/h (0 Bft) N 0,00 h -5,4 C -4,0 C 0,0 km/h (0 Bft)
05.02.2023 09:00 -2,9 C 5,3 C 5,0 C -2,6 C -2,6 C 0,3 C 88 % 99 % 1037,1 hPa 0,0 l/m 0,0 km/h (0 Bft) N 0,00 h -4,6 C -2,6 C 0,0 km/h (0 Bft)
05.02.2023 10:00 -1,4 C 5,0 C 19,0 C -0,4 C -0,4 C 1,0 C 89 % 99 % 1037,1 hPa 0,0 l/m 0,1 km/h (0 Bft) N 0,00 h -3,0 C -0,4 C 0,6 km/h (0 Bft)
05.02.2023 11:00 -0,2 C 4,8 C 24,2 C 1,3 C 1,3 C 1,5 C 86 % 99 % 1037,1 hPa 0,0 l/m 0,1 km/h (0 Bft) N 0,00 h -2,2 C 1,3 C 0,6 km/h (0 Bft)
05.02.2023 12:00 0,7 C 4,7 C 24,2 C 2,3 C 2,3 C 1,6 C 82 % 99 % 1037,1 hPa 0,0 l/m 1,7 km/h (1 Bft) O-NO 0,00 h -2,1 C 2,3 C 3,2 km/h (1 Bft)
05.02.2023 13:00 1,3 C 4,7 C 24,2 C 2,8 C 2,8 C 1,5 C 78 % 99 % 1037,1 hPa 0,0 l/m 3,0 km/h (1 Bft) NO 0,00 h -2,1 C 2,5 C 5,3 km/h (1 Bft)
05.02.2023 14:00 1,8 C 4,7 C 24,2 C 3,8 C 3,8 C 2,0 C 75 % 99 % 1036,1 hPa 0,0 l/m 3,1 km/h (1 Bft) NO 0,00 h -2,2 C 3,6 C 3,9 km/h (1 Bft)
05.02.2023 15:00 1,9 C 4,7 C 24,2 C 3,3 C 3,3 C 1,3 C 72 % 99 % 1035,4 hPa 0,0 l/m 1,4 km/h (1 Bft) NO 0,00 h -2,5 C 3,3 C 2,2 km/h (1 Bft)
05.02.2023 16:00 1,5 C 4,7 C 24,2 C 2,1 C 2,1 C 0,6 C 73 % 99 % 1035,4 hPa 0,0 l/m 0,6 km/h (0 Bft) O-NO 0,00 h -2,8 C 2,1 C 1,3 km/h (1 Bft)
05.02.2023 17:00 0,2 C 4,7 C 22,0 C -0,3 C -1,3 C 0,0 C 74 % 99 % 1035,4 hPa 0,0 l/m 0,1 km/h (0 Bft) N 0,00 h -3,8 C -1,3 C 0,0 km/h (0 Bft)
05.02.2023 18:00 -1,1 C 4,9 C 11,3 C -1,7 C -2,9 C 0,0 C 78 % 99 % 1035,4 hPa 0,0 l/m 0,0 km/h (0 Bft) N 0,00 h -4,4 C -2,9 C 0,0 km/h (0 Bft)
05.02.2023 19:00 -2,1 C 4,9 C 34,7 C -2,8 C -4,1 C 0,0 C 80 % 99 % 1035,4 hPa 0,0 l/m 0,0 km/h (0 Bft) N 0,00 h -5,1 C -4,1 C 0,0 km/h (0 Bft)
05.02.2023 20:00 -3,1 C 5,0 C 73,0 C -3,7 C -4,9 C 0,0 C 82 % 99 % 1035,4 hPa 0,0 l/m 0,0 km/h (0 Bft) N 0,00 h -5,6 C -4,9 C 0,0 km/h (0 Bft)
05.02.2023 21:00 -3,8 C 5,0 C 73,0 C -4,4 C -5,6 C 0,0 C 84 % 99 % 1036,2 hPa 0,0 l/m 0,0 km/h (0 Bft) N 0,00 h -6,1 C -5,6 C 0,0 km/h (0 Bft)
05.02.2023 22:00 -4,5 C 5,1 C 73,0 C -5,1 C -6,2 C 0,0 C 85 % 99 % 1038,3 hPa 0,0 l/m 0,0 km/h (0 Bft) N 0,00 h -6,7 C -6,2 C 0,0 km/h (0 Bft)
05.02.2023 23:00 -5,1 C 5,0 C 73,0 C -5,7 C -6,9 C 0,0 C 85 % 99 % 1038,8 hPa 0,0 l/m 0,0 km/h (0 Bft) N 0,00 h -7,1 C -6,9 C 0,0 km/h (0 Bft)
Min-Datum _ 05.02.23 30.01.23 30.01.23 05.02.23 05.02.23 30.01.23 04.02.23 04.02.23 30.01.23 - 02.02.23 - - 05.02.23 30.01.23 30.01.23
_ Min-Zeit 23:50 01:16 00:00 23:55 23:25 00:00 15:10 20:15 15:25 - 20:20 - - 23:30 01:16 00:10
Minimum _ -5,3 C 3,1 C -1,4 C -5,9 C -7,1 C 0,0 C 67 % 0 % 1010,6 hPa - 0,0 km/h (0 Bft) - - -7,3 C -7,4 C 0,0 km/h (0 Bft)
Max-Datum _ 03.02.23 04.02.23 01.02.23 04.02.23 04.02.23 04.02.23 02.02.23 30.01.23 04.02.23 31.01.23 01.02.23 - 04.02.23 03.02.23 04.02.23 01.02.23
_ Max-Zeit 11:25 00:45 03:15 14:05 14:05 14:05 23:40 00:00 23:45 21:45 17:40 - 14:00 13:40 14:05 17:35
Maximum _ 7,7 C 7,0 C 73,0 C 11,7 C 11,7 C 6,7 C 89 % 99 % 1039,6 hPa 1,4 l/m 18,2 km/h
SW (3 Bft)
- 0,17 h 5,6 C 11,7 C 37,7 km/h
SW (5 Bft)
Durchschnitt _ 2,6 C 5,3 C 22,4 C 2,4 C 1,3 C 0,2 C 82 % 99 % 1022,0 hPa #16,5 l/m 5,7 km/h (1 Bft) SW #1:30 h -0,2 C -0,3 C 7,7 km/h (2 Bft)
2023 www.wetterstation-wechselburg.de